createdAt,value
2019-01-18T00:00:21.975Z,148105.16
2019-01-18T00:01:28.471Z,148095.69
2019-01-18T00:02:34.640Z,148114.56
2019-01-18T00:03:41.062Z,148121.53
2019-01-18T00:04:47.716Z,148095.69
2019-01-18T00:05:54.493Z,148081.16
2019-01-18T00:07:00.843Z,148111.44
2019-01-18T00:08:06.578Z,148122.17
2019-01-18T00:09:12.612Z,148098.17
2019-01-18T00:10:18.999Z,148086.86
2019-01-18T00:11:25.129Z,148079.31
2019-01-18T00:12:31.544Z,148115.19
2019-01-18T00:13:37.878Z,148083.69
2019-01-18T00:14:44.232Z,148093.78
2019-01-18T00:15:49.966Z,148069.84
2019-01-18T00:16:57.178Z,148049.03
2019-01-18T00:18:02.794Z,148055.31
2019-01-18T00:19:09.186Z,148050.94
2019-01-18T00:20:14.873Z,148055.31
2019-01-18T00:21:21.215Z,148067.94
2019-01-18T00:22:27.587Z,148069.22
2019-01-18T00:23:33.937Z,148071.11
2019-01-18T00:24:40.285Z,148055.31
2019-01-18T00:25:46.625Z,148026.36
2019-01-18T00:26:52.970Z,148027.00
2019-01-18T00:28:00.090Z,148035.81
2019-01-18T00:29:05.999Z,148036.45
2019-01-18T00:30:21.546Z,148036.45
2019-01-18T00:31:27.877Z,148101.98
2019-01-18T00:32:34.236Z,148120.91
2019-01-18T00:33:40.234Z,148074.23
2019-01-18T00:34:46.578Z,148037.72
2019-01-18T00:35:52.890Z,148057.22
2019-01-18T00:36:59.693Z,148072.97
2019-01-18T00:38:06.579Z,148076.14
2019-01-18T00:39:13.014Z,148073.59
2019-01-18T00:40:18.722Z,148086.86
2019-01-18T00:41:25.106Z,148075.50
2019-01-18T00:42:31.430Z,148054.09
2019-01-18T00:43:37.865Z,148086.86
2019-01-18T00:44:44.223Z,148067.31
2019-01-18T00:45:50.945Z,148098.17
2019-01-18T00:46:57.830Z,148119.00
2019-01-18T00:48:03.779Z,148120.91
2019-01-18T00:49:09.757Z,148091.87
2019-01-18T00:50:15.471Z,148062.92
2019-01-18T00:51:21.829Z,148094.42
2019-01-18T00:52:28.243Z,148120.27
2019-01-18T00:53:34.613Z,148142.94
2019-01-18T00:54:41.952Z,148096.31
2019-01-18T00:55:48.293Z,148081.16
2019-01-18T00:56:54.645Z,148109.53
2019-01-18T00:58:00.949Z,148089.34
2019-01-18T00:59:07.029Z,148118.36
2019-01-18T01:00:17.963Z,148122.75
2019-01-18T01:01:24.511Z,148124.66
2019-01-18T01:02:30.619Z,148108.91
2019-01-18T01:03:36.986Z,148105.73
2019-01-18T01:04:43.016Z,148120.91
2019-01-18T01:05:48.994Z,148098.81
2019-01-18T01:06:55.370Z,148125.92
2019-01-18T01:08:01.017Z,148148.59
2019-01-18T01:09:07.099Z,148130.36
2019-01-18T01:10:13.920Z,148095.69
2019-01-18T01:11:19.842Z,148137.28
2019-01-18T01:12:26.146Z,148102.61
2019-01-18T01:13:32.559Z,148077.41
2019-01-18T01:14:38.907Z,148069.22
2019-01-18T01:15:44.890Z,148072.34
2019-01-18T01:16:51.224Z,148123.38
2019-01-18T01:17:57.569Z,148132.84
2019-01-18T01:19:03.955Z,148141.67
2019-01-18T01:20:09.631Z,148111.44
2019-01-18T01:21:15.992Z,148111.44
2019-01-18T01:22:22.002Z,148078.03
2019-01-18T01:23:27.973Z,148131.58
2019-01-18T01:24:34.306Z,148144.84
2019-01-18T01:25:40.320Z,148147.97
2019-01-18T01:26:46.678Z,148117.09
2019-01-18T01:27:52.292Z,148104.52
2019-01-18T01:28:58.848Z,148096.31
2019-01-18T01:30:10.567Z,148095.06
2019-01-18T01:31:16.896Z,148086.23
2019-01-18T01:32:23.270Z,148094.42
2019-01-18T01:33:29.647Z,148097.55
2019-01-18T01:34:35.697Z,148126.56
2019-01-18T01:35:41.751Z,148121.53
2019-01-18T01:36:48.064Z,148119.63
2019-01-18T01:37:53.679Z,148108.91
2019-01-18T01:39:00.107Z,148076.78
2019-01-18T01:40:05.754Z,148107.00
2019-01-18T01:41:12.117Z,148111.44
2019-01-18T01:42:18.115Z,148117.09
2019-01-18T01:43:24.148Z,148127.19
2019-01-18T01:44:30.543Z,148107.00
2019-01-18T01:45:36.861Z,148069.22
2019-01-18T01:46:43.235Z,148119.63
2019-01-18T01:47:48.960Z,148178.25
2019-01-18T01:48:55.288Z,148194.00
2019-01-18T01:50:01.591Z,148143.58
2019-01-18T01:51:07.947Z,148128.45
2019-01-18T01:52:14.924Z,148122.75
2019-01-18T01:53:21.744Z,148113.34
2019-01-18T01:54:28.124Z,148134.75
2019-01-18T01:55:34.496Z,148113.34
2019-01-18T01:56:41.085Z,148101.34
2019-01-18T01:57:47.205Z,148116.47
2019-01-18T01:58:53.582Z,148115.83
2019-01-18T01:59:59.957Z,148133.48
2019-01-18T02:01:06.964Z,148140.41
2019-01-18T02:02:13.307Z,148141.67
2019-01-18T02:03:19.663Z,148112.70
2019-01-18T02:04:26.002Z,148093.78
2019-01-18T02:05:32.000Z,148071.70
2019-01-18T02:06:38.401Z,148092.52
2019-01-18T02:07:44.388Z,148088.72
2019-01-18T02:08:50.737Z,148052.20
2019-01-18T02:09:57.096Z,148058.48
2019-01-18T02:11:03.439Z,148027.00
2019-01-18T02:12:09.727Z,148035.19
2019-01-18T02:13:16.485Z,148050.30
2019-01-18T02:14:22.870Z,148102.61
2019-01-18T02:15:29.207Z,148057.22
2019-01-18T02:16:35.564Z,148034.56
2019-01-18T02:17:41.605Z,148053.47
2019-01-18T02:18:47.984Z,148041.47
2019-01-18T02:19:54.390Z,148035.19
2019-01-18T02:21:00.724Z,148018.81
2019-01-18T02:22:06.402Z,148066.67
2019-01-18T02:23:12.766Z,148055.31
2019-01-18T02:24:18.826Z,148075.50
2019-01-18T02:25:24.818Z,148120.91
2019-01-18T02:26:31.172Z,148089.98
2019-01-18T02:27:37.198Z,148042.75
2019-01-18T02:28:43.540Z,148066.05
2019-01-18T02:29:56.406Z,148059.12
2019-01-18T02:30:56.305Z,148045.91
2019-01-18T02:32:02.684Z,148063.50
2019-01-18T02:33:09.051Z,148045.28
2019-01-18T02:34:15.434Z,148025.09
2019-01-18T02:35:21.768Z,148013.73
2019-01-18T02:36:28.084Z,148004.92
2019-01-18T02:37:35.055Z,148009.34
2019-01-18T02:38:41.415Z,147988.53
2019-01-18T02:39:47.814Z,148007.44
2019-01-18T02:40:54.590Z,148028.27
2019-01-18T02:42:00.907Z,148011.88
2019-01-18T02:43:07.225Z,147977.86
2019-01-18T02:44:13.590Z,147967.14
2019-01-18T02:45:19.313Z,147955.78
2019-01-18T02:46:25.653Z,147928.09
2019-01-18T02:47:32.009Z,147943.84
2019-01-18T02:48:38.362Z,147950.77
2019-01-18T02:49:44.821Z,147947.59
2019-01-18T02:50:51.202Z,147888.39
2019-01-18T02:51:57.199Z,147865.09
2019-01-18T02:53:03.549Z,147817.27
2019-01-18T02:54:09.886Z,147813.47
2019-01-18T02:55:16.936Z,147810.94
2019-01-18T02:56:24.064Z,147756.19
2019-01-18T02:57:30.403Z,147690.11
2019-01-18T02:58:36.739Z,147702.67
2019-01-18T02:59:43.106Z,147678.13
2019-01-18T03:00:49.421Z,147694.48
2019-01-18T03:01:55.347Z,147671.22
2019-01-18T03:03:01.688Z,147654.22
2019-01-18T03:04:07.734Z,147680.66
2019-01-18T03:05:13.466Z,147629.06
2019-01-18T03:06:19.542Z,147625.25
2019-01-18T03:07:25.913Z,147588.17
2019-01-18T03:08:31.593Z,147566.75
2019-01-18T03:09:38.015Z,147580.00
2019-01-18T03:10:44.426Z,147559.84
2019-01-18T03:11:50.774Z,147600.72
2019-01-18T03:12:57.113Z,147591.92
2019-01-18T03:14:03.105Z,147575.56
2019-01-18T03:15:08.752Z,147563.64
2019-01-18T03:16:15.053Z,147616.44
2019-01-18T03:17:21.618Z,147641.03
2019-01-18T03:18:27.767Z,147620.88
2019-01-18T03:19:33.828Z,147601.36
2019-01-18T03:20:40.242Z,147608.27
2019-01-18T03:21:46.616Z,147617.72
2019-01-18T03:22:52.986Z,147629.69
2019-01-18T03:23:59.348Z,147590.70
2019-01-18T03:25:05.095Z,147606.42
2019-01-18T03:26:11.524Z,147584.37
2019-01-18T03:27:17.892Z,147581.89
2019-01-18T03:28:24.251Z,147569.92
2019-01-18T03:29:30.676Z,147578.72
2019-01-18T03:30:37.077Z,147622.14
2019-01-18T03:31:43.499Z,147607.69
2019-01-18T03:32:49.191Z,147602.00
2019-01-18T03:33:55.538Z,147592.55
2019-01-18T03:35:02.011Z,147614.59
2019-01-18T03:36:08.377Z,147626.53
2019-01-18T03:37:15.071Z,147629.69
2019-01-18T03:38:22.013Z,147591.92
2019-01-18T03:39:29.012Z,147578.72
2019-01-18T03:40:35.917Z,147576.83
2019-01-18T03:41:42.251Z,147580.63
2019-01-18T03:42:47.901Z,147617.08
2019-01-18T03:43:53.553Z,147615.86
2019-01-18T03:44:59.942Z,147636.59
2019-01-18T03:46:06.307Z,147579.36
2019-01-18T03:47:12.878Z,147604.53
2019-01-18T03:48:19.243Z,147630.33
2019-01-18T03:49:25.567Z,147637.87
2019-01-18T03:50:31.957Z,147630.95
2019-01-18T03:51:38.324Z,147669.95
2019-01-18T03:52:44.347Z,147659.88
2019-01-18T03:53:50.793Z,147610.80
2019-01-18T03:54:57.145Z,147629.06
2019-01-18T03:56:03.540Z,147602.63
2019-01-18T03:57:09.925Z,147549.13
2019-01-18T03:58:16.305Z,147564.91
2019-01-18T03:59:22.631Z,147547.28
2019-01-18T04:00:29.165Z,147559.20
2019-01-18T04:01:35.809Z,147583.73
2019-01-18T04:02:42.210Z,147642.88
2019-01-18T04:03:50.230Z,147648.58
2019-01-18T04:04:56.584Z,147626.53
2019-01-18T04:06:02.648Z,147586.27
2019-01-18T04:07:08.651Z,147544.75
2019-01-18T04:08:14.706Z,147569.28
2019-01-18T04:09:21.086Z,147563.64
2019-01-18T04:10:27.718Z,147566.75
2019-01-18T04:11:34.266Z,147623.41
2019-01-18T04:12:40.764Z,147664.94
2019-01-18T04:13:47.153Z,147642.25
2019-01-18T04:14:53.572Z,147570.55
2019-01-18T04:15:59.996Z,147583.11
2019-01-18T04:17:06.340Z,147578.09
2019-01-18T04:18:12.664Z,147544.12
2019-01-18T04:19:19.004Z,147592.55
2019-01-18T04:20:24.630Z,147583.73
2019-01-18T04:21:31.498Z,147645.41
2019-01-18T04:22:37.961Z,147654.22
2019-01-18T04:23:44.170Z,147664.94
2019-01-18T04:24:50.528Z,147637.87
2019-01-18T04:25:56.986Z,147606.42
2019-01-18T04:27:03.343Z,147607.06
2019-01-18T04:28:09.720Z,147655.50
2019-01-18T04:29:16.221Z,147676.23
2019-01-18T04:30:21.976Z,147658.61
2019-01-18T04:31:28.374Z,147666.84
2019-01-18T04:32:34.766Z,147706.47
2019-01-18T04:33:41.727Z,147695.75
2019-01-18T04:34:48.207Z,147676.23
2019-01-18T04:35:54.601Z,147602.00
2019-01-18T04:37:00.573Z,147645.41
2019-01-18T04:38:07.761Z,147665.56
2019-01-18T04:39:14.098Z,147578.09
2019-01-18T04:40:25.155Z,147575.56
2019-01-18T04:41:31.550Z,147624.67
2019-01-18T04:42:37.896Z,147598.88
2019-01-18T04:43:44.227Z,147592.55
2019-01-18T04:44:50.604Z,147571.81
2019-01-18T04:45:57.119Z,147576.83
2019-01-18T04:47:03.483Z,147540.38
2019-01-18T04:48:09.856Z,147538.47
2019-01-18T04:49:16.257Z,147556.09
2019-01-18T04:50:22.010Z,147580.00
2019-01-18T04:51:28.384Z,147580.00
2019-01-18T04:52:34.723Z,147570.55
2019-01-18T04:53:41.091Z,147579.36
2019-01-18T04:54:47.423Z,147604.53
2019-01-18T04:55:53.785Z,147608.91
2019-01-18T04:57:00.147Z,147589.44
2019-01-18T04:58:06.532Z,147611.44
2019-01-18T04:59:12.871Z,147588.80
2019-01-18T05:00:22.322Z,147618.97
2019-01-18T05:01:28.741Z,147613.97
2019-01-18T05:02:35.138Z,147618.97
2019-01-18T05:03:41.525Z,147632.84
2019-01-18T05:04:47.890Z,147627.16
2019-01-18T05:05:54.265Z,147614.59
2019-01-18T05:07:00.455Z,147607.69
2019-01-18T05:08:06.884Z,147586.91
2019-01-18T05:09:13.267Z,147607.69
2019-01-18T05:10:18.957Z,147623.41
2019-01-18T05:11:25.356Z,147590.06
2019-01-18T05:12:31.830Z,147605.78
2019-01-18T05:13:38.214Z,147612.70
2019-01-18T05:14:44.532Z,147621.50
2019-01-18T05:15:50.896Z,147618.97
2019-01-18T05:16:57.289Z,147590.70
2019-01-18T05:18:03.723Z,147603.89
2019-01-18T05:19:10.075Z,147627.78
2019-01-18T05:20:15.748Z,147651.06
2019-01-18T05:21:22.157Z,147627.16
2019-01-18T05:22:28.561Z,147607.69
2019-01-18T05:23:34.918Z,147596.97
2019-01-18T05:24:41.264Z,147617.08
2019-01-18T05:25:47.677Z,147618.34
2019-01-18T05:26:54.038Z,147608.27
2019-01-18T05:28:00.355Z,147639.12
2019-01-18T05:29:06.983Z,147621.50
2019-01-18T05:30:13.441Z,147607.06
2019-01-18T05:31:19.991Z,147608.91
2019-01-18T05:32:26.541Z,147631.59
2019-01-18T05:33:32.582Z,147636.59
2019-01-18T05:34:38.939Z,147646.05
2019-01-18T05:35:48.269Z,147614.59
2019-01-18T05:36:54.685Z,147641.03
2019-01-18T05:38:00.696Z,147605.78
2019-01-18T05:39:06.685Z,147578.09
2019-01-18T05:40:13.333Z,147608.91
2019-01-18T05:41:19.674Z,147557.36
2019-01-18T05:42:26.035Z,147561.11
2019-01-18T05:43:32.377Z,147548.55
2019-01-18T05:44:38.748Z,147553.56
2019-01-18T05:45:44.854Z,147566.75
2019-01-18T05:46:51.198Z,147535.31
2019-01-18T05:47:58.578Z,147527.14
2019-01-18T05:49:05.328Z,147500.08
2019-01-18T05:50:11.732Z,147505.14
2019-01-18T05:51:17.834Z,147515.80
2019-01-18T05:52:24.168Z,147540.97
2019-01-18T05:53:30.299Z,147518.33
2019-01-18T05:54:36.704Z,147532.20
2019-01-18T05:55:43.155Z,147551.03
2019-01-18T05:56:49.526Z,147493.81
2019-01-18T05:57:55.942Z,147491.28
2019-01-18T05:59:02.317Z,147471.81
2019-01-18T06:00:16.290Z,147471.19
2019-01-18T06:01:22.777Z,147493.81
2019-01-18T06:02:28.916Z,147463.64
2019-01-18T06:03:35.141Z,147467.39
2019-01-18T06:04:40.948Z,147453.56
2019-01-18T06:05:46.776Z,147485.63
2019-01-18T06:06:53.206Z,147483.73
2019-01-18T06:07:59.640Z,147518.97
2019-01-18T06:09:05.816Z,147532.78
2019-01-18T06:10:13.537Z,147537.84
2019-01-18T06:11:18.398Z,147557.94
2019-01-18T06:12:25.697Z,147544.75
2019-01-18T06:13:32.048Z,147485.00
2019-01-18T06:14:38.362Z,147449.14
2019-01-18T06:15:44.765Z,147429.06
2019-01-18T06:16:51.132Z,147438.50
2019-01-18T06:17:57.643Z,147447.92
2019-01-18T06:19:04.040Z,147486.91
2019-01-18T06:20:10.698Z,147482.47
2019-01-18T06:21:17.049Z,147503.25
2019-01-18T06:22:23.511Z,147490.06
2019-01-18T06:23:29.888Z,147525.87
2019-01-18T06:24:36.325Z,147505.14
2019-01-18T06:25:42.747Z,147490.06
2019-01-18T06:26:48.826Z,147491.28
2019-01-18T06:27:54.850Z,147461.11
2019-01-18T06:29:01.257Z,147458.58
2019-01-18T06:30:08.193Z,147413.97
2019-01-18T06:31:14.753Z,147424.00
2019-01-18T06:32:21.144Z,147413.34
2019-01-18T06:33:27.527Z,147348.56
2019-01-18T06:34:33.859Z,147361.16
2019-01-18T06:35:40.253Z,147336.64
2019-01-18T06:36:46.259Z,147313.41
2019-01-18T06:37:52.307Z,147307.08
2019-01-18T06:38:58.715Z,147343.55
2019-01-18T06:40:04.421Z,147367.42
2019-01-18T06:41:10.707Z,147372.44
2019-01-18T06:42:17.074Z,147397.58
2019-01-18T06:43:23.535Z,147381.88
2019-01-18T06:44:29.891Z,147376.22
2019-01-18T06:45:36.259Z,147398.84
2019-01-18T06:46:42.723Z,147388.19
2019-01-18T06:47:49.079Z,147354.88
2019-01-18T06:48:56.167Z,147366.16
2019-01-18T06:50:02.522Z,147357.36
2019-01-18T06:51:08.858Z,147373.06
2019-01-18T06:52:15.836Z,147341.02
2019-01-18T06:53:22.183Z,147339.75
2019-01-18T06:54:28.249Z,147351.08
2019-01-18T06:55:34.284Z,147377.50
2019-01-18T06:56:40.771Z,147412.08
2019-01-18T06:57:46.481Z,147417.72
2019-01-18T06:58:52.813Z,147387.56
2019-01-18T06:59:59.135Z,147313.98
2019-01-18T07:01:08.623Z,147283.83
2019-01-18T07:02:11.182Z,147303.97
2019-01-18T07:03:18.086Z,147313.98
2019-01-18T07:04:24.467Z,147289.47
2019-01-18T07:05:30.773Z,147295.17
2019-01-18T07:06:37.093Z,147332.84
2019-01-18T07:07:43.166Z,147334.75
2019-01-18T07:08:49.217Z,147290.75
2019-01-18T07:09:55.596Z,147302.06
2019-01-18T07:11:01.937Z,147361.78
2019-01-18T07:12:07.943Z,147349.81
2019-01-18T07:13:14.600Z,147336.64
2019-01-18T07:14:21.652Z,147334.75
2019-01-18T07:15:28.018Z,147366.16
2019-01-18T07:16:34.445Z,147329.11
2019-01-18T07:17:40.149Z,147279.47
2019-01-18T07:18:46.534Z,147293.27
2019-01-18T07:19:52.935Z,147290.75
2019-01-18T07:20:59.271Z,147273.14
2019-01-18T07:22:05.288Z,147215.97
2019-01-18T07:23:11.635Z,147210.97
2019-01-18T07:24:18.515Z,147239.84
2019-01-18T07:25:25.140Z,147258.70
2019-01-18T07:26:31.503Z,147234.20
2019-01-18T07:27:37.826Z,147206.53
2019-01-18T07:28:44.273Z,147236.72
2019-01-18T07:29:50.721Z,147295.80
2019-01-18T07:30:57.184Z,147312.77
2019-01-18T07:32:03.526Z,147321.56
2019-01-18T07:33:09.522Z,147280.67
2019-01-18T07:34:15.875Z,147303.97
2019-01-18T07:35:22.206Z,147303.34
2019-01-18T07:36:28.543Z,147281.94
2019-01-18T07:37:34.858Z,147273.14
2019-01-18T07:38:41.469Z,147205.91
2019-01-18T07:39:48.036Z,147215.34
2019-01-18T07:40:54.371Z,147265.61
2019-01-18T07:42:00.669Z,147310.23
2019-01-18T07:43:06.713Z,147319.03
2019-01-18T07:44:13.804Z,147302.06
2019-01-18T07:45:20.283Z,147268.13
2019-01-18T07:46:26.643Z,147305.19
2019-01-18T07:47:33.038Z,147300.81
2019-01-18T07:48:39.403Z,147325.31
2019-01-18T07:49:45.736Z,147319.67
2019-01-18T07:50:51.863Z,147336.02
2019-01-18T07:51:57.910Z,147302.70
2019-01-18T07:53:03.531Z,147310.23
2019-01-18T07:54:09.959Z,147317.14
2019-01-18T07:55:16.019Z,147287.63
2019-01-18T07:56:22.342Z,147258.06
2019-01-18T07:57:28.692Z,147251.16
2019-01-18T07:58:35.871Z,147271.87
2019-01-18T07:59:42.762Z,147291.37
2019-01-18T08:00:49.109Z,147275.67
2019-01-18T08:01:55.525Z,147270.03
2019-01-18T08:03:01.876Z,147300.17
2019-01-18T08:04:08.201Z,147327.84
2019-01-18T08:05:14.282Z,147330.31
2019-01-18T08:06:20.291Z,147358.00
2019-01-18T08:07:26.270Z,147316.50
2019-01-18T08:08:32.700Z,147302.06
2019-01-18T08:09:39.070Z,147302.06
2019-01-18T08:10:45.451Z,147311.50
2019-01-18T08:11:51.821Z,147346.08
2019-01-18T08:12:57.850Z,147348.56
2019-01-18T08:14:03.633Z,147363.05
2019-01-18T08:15:09.949Z,147368.69
2019-01-18T08:16:16.301Z,147366.16
2019-01-18T08:17:22.781Z,147352.34
2019-01-18T08:18:29.238Z,147346.70
2019-01-18T08:19:35.571Z,147349.19
2019-01-18T08:20:41.562Z,147319.67
2019-01-18T08:21:47.895Z,147352.98
2019-01-18T08:22:54.043Z,147379.39
2019-01-18T08:24:00.485Z,147364.27
2019-01-18T08:25:06.145Z,147330.31
2019-01-18T08:26:12.536Z,147361.16
2019-01-18T08:27:18.574Z,147418.34
2019-01-18T08:28:24.938Z,147352.98
2019-01-18T08:29:31.298Z,147367.42
2019-01-18T08:30:37.267Z,147398.84
2019-01-18T08:31:43.812Z,147415.19
2019-01-18T08:32:49.837Z,147356.72
2019-01-18T08:33:55.877Z,147385.03
2019-01-18T08:35:02.246Z,147405.17
2019-01-18T08:36:08.267Z,147446.66
2019-01-18T08:37:14.269Z,147447.30
2019-01-18T08:38:20.607Z,147491.91
2019-01-18T08:39:26.954Z,147467.39
2019-01-18T08:40:33.335Z,147444.13
2019-01-18T08:41:39.680Z,147460.48
2019-01-18T08:42:46.810Z,147479.98
2019-01-18T08:43:53.175Z,147508.89
2019-01-18T08:44:59.552Z,147489.42
2019-01-18T08:46:05.509Z,147470.55
2019-01-18T08:47:11.908Z,147439.70
2019-01-18T08:48:18.307Z,147456.09
2019-01-18T08:49:24.646Z,147474.92
2019-01-18T08:50:30.309Z,147497.59
2019-01-18T08:51:36.638Z,147515.80
2019-01-18T08:52:42.968Z,147527.77
2019-01-18T08:53:49.302Z,147447.30
2019-01-18T08:54:55.694Z,147473.08
2019-01-18T08:56:02.079Z,147496.34
2019-01-18T08:57:08.428Z,147503.25
2019-01-18T08:58:14.800Z,147486.27
2019-01-18T08:59:21.218Z,147534.05
2019-01-18T09:00:29.404Z,147580.63
2019-01-18T09:01:36.036Z,147583.73
2019-01-18T09:02:42.424Z,147496.34
2019-01-18T09:03:49.415Z,147481.25
2019-01-18T09:04:55.779Z,147486.27
2019-01-18T09:06:02.082Z,147527.77
2019-01-18T09:07:08.471Z,147556.09
2019-01-18T09:08:14.066Z,147497.59
2019-01-18T09:09:20.468Z,147517.06
2019-01-18T09:10:26.164Z,147485.00
2019-01-18T09:11:32.609Z,147492.55
2019-01-18T09:12:38.927Z,147469.92
2019-01-18T09:13:45.338Z,147470.55
2019-01-18T09:14:51.719Z,147463.02
2019-01-18T09:15:58.091Z,147493.81
2019-01-18T09:17:04.054Z,147510.16
2019-01-18T09:18:10.043Z,147515.22
2019-01-18T09:19:16.451Z,147493.17
2019-01-18T09:20:22.921Z,147487.53
2019-01-18T09:21:29.374Z,147453.56
2019-01-18T09:22:35.787Z,147502.61
2019-01-18T09:23:41.787Z,147469.28
2019-01-18T09:24:48.203Z,147493.17
2019-01-18T09:25:54.553Z,147487.53
2019-01-18T09:27:00.954Z,147485.63
2019-01-18T09:28:07.324Z,147491.91
2019-01-18T09:29:13.707Z,147498.81
2019-01-18T09:30:20.036Z,147541.59
2019-01-18T09:31:26.379Z,147603.89
2019-01-18T09:32:32.697Z,147605.16
2019-01-18T09:33:39.028Z,147549.77
2019-01-18T09:34:45.440Z,147518.33
2019-01-18T09:35:51.449Z,147544.75
2019-01-18T09:36:57.814Z,147507.63
2019-01-18T09:38:03.499Z,147536.58
2019-01-18T09:39:09.576Z,147527.77
2019-01-18T09:40:15.209Z,147570.55
2019-01-18T09:41:21.504Z,147534.05
2019-01-18T09:42:27.885Z,147517.70
2019-01-18T09:43:34.408Z,147537.22
2019-01-18T09:44:40.798Z,147602.63
2019-01-18T09:45:47.895Z,147627.78
2019-01-18T09:46:54.742Z,147618.34
2019-01-18T09:48:01.575Z,147652.97
2019-01-18T09:49:07.931Z,147642.25
2019-01-18T09:50:15.344Z,147704.56
2019-01-18T09:51:21.688Z,147717.77
2019-01-18T09:52:28.041Z,147727.84
2019-01-18T09:53:34.019Z,147714.66
2019-01-18T09:54:40.406Z,147718.39
2019-01-18T09:55:46.779Z,147772.55
2019-01-18T09:56:53.097Z,147788.28
2019-01-18T09:57:59.446Z,147719.66
2019-01-18T09:59:05.439Z,147718.39
2019-01-18T10:00:23.773Z,147729.11
2019-01-18T10:01:30.070Z,147699.55
2019-01-18T10:02:36.363Z,147671.84
2019-01-18T10:03:42.705Z,147689.47
2019-01-18T10:04:49.078Z,147676.86
2019-01-18T10:05:55.425Z,147680.03
2019-01-18T10:07:01.791Z,147715.28
2019-01-18T10:08:07.434Z,147719.03
2019-01-18T10:09:13.796Z,147762.47
2019-01-18T10:10:19.437Z,147746.73
2019-01-18T10:11:26.314Z,147773.19
2019-01-18T10:12:32.634Z,147804.66
2019-01-18T10:13:38.950Z,147807.19
2019-01-18T10:14:45.338Z,147819.11
2019-01-18T10:15:51.000Z,147822.91
2019-01-18T10:16:57.027Z,147807.81
2019-01-18T10:18:03.077Z,147755.55
2019-01-18T10:19:09.454Z,147761.84
2019-01-18T10:20:15.118Z,147841.19
2019-01-18T10:21:21.496Z,147837.37
2019-01-18T10:22:27.830Z,147830.47
2019-01-18T10:23:33.832Z,147795.19
2019-01-18T10:24:40.210Z,147806.55
2019-01-18T10:25:46.553Z,147821.66
2019-01-18T10:26:52.897Z,147819.11
2019-01-18T10:28:00.582Z,147865.73
2019-01-18T10:29:07.474Z,147868.91
2019-01-18T10:30:24.211Z,147863.84
2019-01-18T10:31:30.535Z,147909.20
2019-01-18T10:32:36.886Z,147916.75
2019-01-18T10:33:43.302Z,147877.09
2019-01-18T10:34:49.683Z,147933.13
2019-01-18T10:35:55.647Z,147955.16
2019-01-18T10:37:01.969Z,147940.67
2019-01-18T10:38:07.602Z,147914.84
2019-01-18T10:39:13.932Z,147907.94
2019-01-18T10:40:19.559Z,147952.03
2019-01-18T10:41:25.970Z,147972.80
2019-01-18T10:42:31.591Z,147990.44
2019-01-18T10:43:37.947Z,147987.27
2019-01-18T10:44:44.287Z,147989.81
2019-01-18T10:45:50.244Z,147952.67
2019-01-18T10:46:56.642Z,147875.81
2019-01-18T10:48:03.097Z,147836.12
2019-01-18T10:49:10.014Z,147913.58
2019-01-18T10:50:15.970Z,147940.05
2019-01-18T10:51:22.358Z,147958.31
2019-01-18T10:52:28.351Z,147963.34
2019-01-18T10:53:34.675Z,147931.86
2019-01-18T10:54:41.008Z,147868.91
2019-01-18T10:55:47.361Z,147909.20
2019-01-18T10:56:53.715Z,147921.77
2019-01-18T10:57:59.795Z,147961.48
2019-01-18T10:59:06.165Z,147958.31
2019-01-18T11:00:11.836Z,147952.03
2019-01-18T11:01:18.268Z,147953.30
2019-01-18T11:02:24.669Z,147984.78
2019-01-18T11:03:31.157Z,147982.87
2019-01-18T11:04:36.823Z,147962.08
2019-01-18T11:05:43.244Z,148011.25
2019-01-18T11:06:49.647Z,147975.97
2019-01-18T11:07:55.955Z,147967.14
2019-01-18T11:09:02.263Z,147987.91
2019-01-18T11:10:10.002Z,147994.25
2019-01-18T11:11:16.800Z,148000.53
2019-01-18T11:12:23.137Z,147991.70
2019-01-18T11:13:29.562Z,148025.09
2019-01-18T11:14:35.251Z,148029.48
2019-01-18T11:15:41.583Z,147986.69
2019-01-18T11:16:47.924Z,147992.34
2019-01-18T11:17:54.348Z,147995.50
2019-01-18T11:19:00.732Z,147943.84
2019-01-18T11:20:08.983Z,147978.50
2019-01-18T11:21:14.599Z,148003.69
2019-01-18T11:22:20.955Z,147998.63
2019-01-18T11:23:27.377Z,147982.25
2019-01-18T11:24:33.792Z,147962.08
2019-01-18T11:25:39.722Z,147972.16
2019-01-18T11:26:46.111Z,148016.28
2019-01-18T11:27:52.463Z,147987.27
2019-01-18T11:28:58.967Z,147950.13
2019-01-18T11:30:13.412Z,147904.77
2019-01-18T11:31:23.323Z,147923.03
2019-01-18T11:32:25.664Z,147982.25
2019-01-18T11:33:31.654Z,147978.50
2019-01-18T11:34:38.063Z,147942.58
2019-01-18T11:35:43.698Z,147962.70
2019-01-18T11:36:49.985Z,148027.63
2019-01-18T11:37:55.581Z,147999.25
2019-01-18T11:39:01.975Z,148032.66
2019-01-18T11:40:10.571Z,148013.09
2019-01-18T11:41:16.558Z,148023.83
2019-01-18T11:42:22.913Z,148023.83
2019-01-18T11:43:29.288Z,148069.22
2019-01-18T11:44:35.601Z,148052.20
2019-01-18T11:45:41.926Z,147986.05
2019-01-18T11:46:48.229Z,147996.09
2019-01-18T11:47:54.619Z,148048.39
2019-01-18T11:49:00.599Z,148056.59
2019-01-18T11:50:13.084Z,148045.28
2019-01-18T11:51:19.544Z,148016.91
2019-01-18T11:52:26.840Z,148025.72
2019-01-18T11:53:33.791Z,148042.75
2019-01-18T11:54:43.994Z,148016.28
2019-01-18T11:55:46.682Z,147993.61
2019-01-18T11:56:53.073Z,148011.25
2019-01-18T11:57:59.465Z,148066.67
2019-01-18T11:59:05.890Z,148073.59
2019-01-18T12:00:22.717Z,148071.70
2019-01-18T12:01:29.053Z,148045.28
2019-01-18T12:02:35.130Z,148051.56
2019-01-18T12:03:41.857Z,148081.16
2019-01-18T12:04:48.293Z,148098.81
2019-01-18T12:05:54.640Z,148071.70
2019-01-18T12:07:00.983Z,148056.59
2019-01-18T12:08:06.966Z,148084.33
2019-01-18T12:09:13.291Z,148075.50
2019-01-18T12:10:20.304Z,148038.94
2019-01-18T12:11:26.690Z,148083.69
2019-01-18T12:12:33.003Z,148064.78
2019-01-18T12:13:39.861Z,148002.44
2019-01-18T12:14:46.343Z,148032.66
2019-01-18T12:15:52.737Z,148087.50
2019-01-18T12:16:59.601Z,148042.11
2019-01-18T12:18:05.067Z,148079.94
2019-01-18T12:19:11.412Z,148089.98
2019-01-18T12:20:17.716Z,148092.52
2019-01-18T12:21:24.177Z,148115.83
2019-01-18T12:22:29.871Z,148035.81
2019-01-18T12:23:35.889Z,147998.63
2019-01-18T12:24:42.210Z,148006.81
2019-01-18T12:25:48.585Z,148060.39
2019-01-18T12:26:54.929Z,148086.23
2019-01-18T12:28:01.288Z,148108.27
2019-01-18T12:29:07.292Z,148066.67
2019-01-18T12:30:17.771Z,148064.14
2019-01-18T12:31:24.143Z,148017.53
2019-01-18T12:32:30.507Z,147999.25
2019-01-18T12:33:36.862Z,148013.09
2019-01-18T12:34:43.183Z,148020.70
2019-01-18T12:35:49.578Z,148030.12
2019-01-18T12:36:58.891Z,148074.23
2019-01-18T12:38:01.555Z,148101.98